sensor_id;sensor_type;location;lat;lon;timestamp;pressure;altitude;pressure_sealevel;temperature;humidity
24336;BME280;33098;52.400;16.880;2022-11-20T00:00:54;100329.56;;;0.55;84.86
24336;BME280;33098;52.400;16.880;2022-11-20T00:03:21;100332.70;;;0.51;84.63
24336;BME280;33098;52.400;16.880;2022-11-20T00:05:48;100332.63;;;0.48;84.68
24336;BME280;33098;52.400;16.880;2022-11-20T00:08:14;100339.41;;;0.39;84.48
24336;BME280;33098;52.400;16.880;2022-11-20T00:10:41;100339.44;;;0.39;84.84
24336;BME280;33098;52.400;16.880;2022-11-20T00:13:08;100338.64;;;0.46;85.03
24336;BME280;33098;52.400;16.880;2022-11-20T00:15:34;100338.64;;;0.41;84.91
24336;BME280;33098;52.400;16.880;2022-11-20T00:18:01;100340.58;;;0.32;84.83
24336;BME280;33098;52.400;16.880;2022-11-20T00:20:27;100344.09;;;0.22;84.75
24336;BME280;33098;52.400;16.880;2022-11-20T00:22:54;100342.98;;;0.19;84.94
24336;BME280;33098;52.400;16.880;2022-11-20T00:25:20;100341.31;;;0.22;85.05
24336;BME280;33098;52.400;16.880;2022-11-20T00:27:47;100344.31;;;0.21;85.24
24336;BME280;33098;52.400;16.880;2022-11-20T00:30:13;100342.30;;;0.27;85.47
24336;BME280;33098;52.400;16.880;2022-11-20T00:32:40;100343.59;;;0.35;85.50
24336;BME280;33098;52.400;16.880;2022-11-20T00:35:07;100337.80;;;0.36;85.52
24336;BME280;33098;52.400;16.880;2022-11-20T00:37:34;100339.85;;;0.32;85.43
24336;BME280;33098;52.400;16.880;2022-11-20T00:40:00;100342.13;;;0.37;85.52
24336;BME280;33098;52.400;16.880;2022-11-20T00:42:27;100340.68;;;0.43;85.46
24336;BME280;33098;52.400;16.880;2022-11-20T00:44:53;100341.89;;;0.39;85.19
24336;BME280;33098;52.400;16.880;2022-11-20T00:47:20;100343.41;;;0.44;85.20
24336;BME280;33098;52.400;16.880;2022-11-20T00:49:46;100343.27;;;0.53;85.42
24336;BME280;33098;52.400;16.880;2022-11-20T00:52:13;100341.20;;;0.57;85.28
24336;BME280;33098;52.400;16.880;2022-11-20T00:54:40;100345.08;;;0.65;85.40
24336;BME280;33098;52.400;16.880;2022-11-20T00:57:06;100349.57;;;0.70;85.40
24336;BME280;33098;52.400;16.880;2022-11-20T00:59:33;100348.27;;;0.64;84.94
24336;BME280;33098;52.400;16.880;2022-11-20T01:01:59;100350.13;;;0.60;84.98
24336;BME280;33098;52.400;16.880;2022-11-20T01:04:26;100353.59;;;0.52;84.48
24336;BME280;33098;52.400;16.880;2022-11-20T01:06:52;100349.38;;;0.44;84.50
24336;BME280;33098;52.400;16.880;2022-11-20T01:09:19;100343.59;;;0.39;84.50
24336;BME280;33098;52.400;16.880;2022-11-20T01:11:46;100343.39;;;0.36;84.57
24336;BME280;33098;52.400;16.880;2022-11-20T01:14:17;100341.77;;;0.28;84.60
24336;BME280;33098;52.400;16.880;2022-11-20T01:16:49;100339.08;;;0.30;84.72
24336;BME280;33098;52.400;16.880;2022-11-20T01:19:19;100341.55;;;0.29;84.87
24336;BME280;33098;52.400;16.880;2022-11-20T01:21:50;100343.60;;;0.30;84.95
24336;BME280;33098;52.400;16.880;2022-11-20T01:24:18;100343.88;;;0.27;85.01
24336;BME280;33098;52.400;16.880;2022-11-20T01:26:47;100344.27;;;0.26;85.05
24336;BME280;33098;52.400;16.880;2022-11-20T01:29:25;100342.67;;;0.32;85.30
24336;BME280;33098;52.400;16.880;2022-11-20T01:31:52;100349.04;;;0.34;85.35
24336;BME280;33098;52.400;16.880;2022-11-20T01:34:20;100344.30;;;0.39;85.25
24336;BME280;33098;52.400;16.880;2022-11-20T01:36:49;100346.56;;;0.35;85.16
24336;BME280;33098;52.400;16.880;2022-11-20T01:39:22;100340.68;;;0.33;85.34
24336;BME280;33098;52.400;16.880;2022-11-20T01:41:49;100345.61;;;0.32;85.47
24336;BME280;33098;52.400;16.880;2022-11-20T01:44:55;100340.86;;;0.28;85.38
24336;BME280;33098;52.400;16.880;2022-11-20T01:52:42;100348.79;;;0.17;85.60
24336;BME280;33098;52.400;16.880;2022-11-20T01:55:30;100351.23;;;0.17;85.75
24336;BME280;33098;52.400;16.880;2022-11-20T01:57:58;100351.82;;;0.10;85.80
24336;BME280;33098;52.400;16.880;2022-11-20T02:00:26;100348.64;;;0.02;85.71
24336;BME280;33098;52.400;16.880;2022-11-20T02:03:04;100351.40;;;-0.02;86.09
24336;BME280;33098;52.400;16.880;2022-11-20T02:08:18;100340.17;;;-0.19;86.12
24336;BME280;33098;52.400;16.880;2022-11-20T02:10:45;100340.02;;;-0.15;86.48
24336;BME280;33098;52.400;16.880;2022-11-20T02:13:12;100335.50;;;-0.06;86.88
24336;BME280;33098;52.400;16.880;2022-11-20T02:15:57;100332.72;;;-0.06;87.06
24336;BME280;33098;52.400;16.880;2022-11-20T02:18:24;100329.68;;;-0.04;87.02
24336;BME280;33098;52.400;16.880;2022-11-20T02:20:54;100334.16;;;-0.03;86.99
24336;BME280;33098;52.400;16.880;2022-11-20T02:23:38;100337.93;;;-0.06;87.15
24336;BME280;33098;52.400;16.880;2022-11-20T02:26:08;100336.34;;;-0.10;87.24
24336;BME280;33098;52.400;16.880;2022-11-20T02:28:37;100338.21;;;-0.13;87.36
24336;BME280;33098;52.400;16.880;2022-11-20T02:31:04;100335.94;;;-0.08;87.50
24336;BME280;33098;52.400;16.880;2022-11-20T02:33:30;100334.59;;;-0.05;87.53
24336;BME280;33098;52.400;16.880;2022-11-20T02:35:57;100334.73;;;-0.04;87.70
24336;BME280;33098;52.400;16.880;2022-11-20T02:38:25;100338.23;;;-0.04;87.57
24336;BME280;33098;52.400;16.880;2022-11-20T02:40:51;100332.29;;;-0.04;87.73
24336;BME280;33098;52.400;16.880;2022-11-20T02:43:18;100331.48;;;-0.06;87.67
24336;BME280;33098;52.400;16.880;2022-11-20T02:45:44;100326.23;;;-0.05;87.85
24336;BME280;33098;52.400;16.880;2022-11-20T02:48:11;100330.74;;;-0.10;87.58
24336;BME280;33098;52.400;16.880;2022-11-20T02:50:38;100325.58;;;-0.16;87.66
24336;BME280;33098;52.400;16.880;2022-11-20T02:53:06;100321.70;;;-0.05;87.92
24336;BME280;33098;52.400;16.880;2022-11-20T02:55:33;100319.96;;;-0.01;88.21
24336;BME280;33098;52.400;16.880;2022-11-20T02:57:59;100323.45;;;0.04;88.20
24336;BME280;33098;52.400;16.880;2022-11-20T03:00:26;100321.34;;;0.09;88.19
24336;BME280;33098;52.400;16.880;2022-11-20T03:02:53;100318.02;;;0.09;88.08
24336;BME280;33098;52.400;16.880;2022-11-20T03:05:19;100316.16;;;0.12;88.21
24336;BME280;33098;52.400;16.880;2022-11-20T03:07:46;100315.34;;;0.20;88.39
24336;BME280;33098;52.400;16.880;2022-11-20T03:10:13;100317.89;;;0.27;88.21
24336;BME280;33098;52.400;16.880;2022-11-20T03:12:47;100311.34;;;0.29;88.17
24336;BME280;33098;52.400;16.880;2022-11-20T03:15:13;100309.88;;;0.31;88.03
24336;BME280;33098;52.400;16.880;2022-11-20T03:17:40;100311.47;;;0.35;88.02
24336;BME280;33098;52.400;16.880;2022-11-20T03:20:08;100309.88;;;0.26;87.78
24336;BME280;33098;52.400;16.880;2022-11-20T03:22:35;100308.48;;;0.12;87.71
24336;BME280;33098;52.400;16.880;2022-11-20T03:25:04;100309.45;;;0.14;87.83
24336;BME280;33098;52.400;16.880;2022-11-20T03:27:33;100312.76;;;0.15;87.82
24336;BME280;33098;52.400;16.880;2022-11-20T03:30:02;100309.45;;;0.14;87.99
24336;BME280;33098;52.400;16.880;2022-11-20T03:32:29;100313.81;;;0.24;88.16
24336;BME280;33098;52.400;16.880;2022-11-20T03:34:55;100313.51;;;0.23;88.04
24336;BME280;33098;52.400;16.880;2022-11-20T03:37:22;100317.45;;;0.29;88.04
24336;BME280;33098;52.400;16.880;2022-11-20T03:39:49;100316.13;;;0.37;87.99
24336;BME280;33098;52.400;16.880;2022-11-20T03:42:16;100315.90;;;0.42;88.19
24336;BME280;33098;52.400;16.880;2022-11-20T03:45:01;100318.73;;;0.55;88.20
24336;BME280;33098;52.400;16.880;2022-11-20T03:47:28;100318.29;;;0.62;88.03
24336;BME280;33098;52.400;16.880;2022-11-20T03:49:54;100317.81;;;0.61;87.83
24336;BME280;33098;52.400;16.880;2022-11-20T03:52:21;100316.97;;;0.51;87.55
24336;BME280;33098;52.400;16.880;2022-11-20T03:54:48;100319.01;;;0.57;87.73
24336;BME280;33098;52.400;16.880;2022-11-20T03:57:14;100311.73;;;0.56;87.40
24336;BME280;33098;52.400;16.880;2022-11-20T03:59:41;100310.15;;;0.51;87.42
24336;BME280;33098;52.400;16.880;2022-11-20T04:02:07;100311.97;;;0.49;87.34
24336;BME280;33098;52.400;16.880;2022-11-20T04:04:34;100313.39;;;0.44;87.09
24336;BME280;33098;52.400;16.880;2022-11-20T04:07:00;100320.81;;;0.33;87.02
24336;BME280;33098;52.400;16.880;2022-11-20T04:09:27;100321.75;;;0.22;87.20
24336;BME280;33098;52.400;16.880;2022-11-20T04:11:54;100315.58;;;0.23;87.49
24336;BME280;33098;52.400;16.880;2022-11-20T04:14:20;100318.73;;;0.28;87.55
24336;BME280;33098;52.400;16.880;2022-11-20T04:16:47;100322.06;;;0.27;87.58
24336;BME280;33098;52.400;16.880;2022-11-20T04:19:15;100323.77;;;0.33;87.75
24336;BME280;33098;52.400;16.880;2022-11-20T04:21:43;100325.82;;;0.34;87.86
24336;BME280;33098;52.400;16.880;2022-11-20T04:24:10;100324.24;;;0.21;87.66
24336;BME280;33098;52.400;16.880;2022-11-20T04:26:37;100325.89;;;0.18;87.65
24336;BME280;33098;52.400;16.880;2022-11-20T04:29:04;100324.50;;;0.18;87.75
24336;BME280;33098;52.400;16.880;2022-11-20T04:31:33;100322.17;;;0.25;88.13
24336;BME280;33098;52.400;16.880;2022-11-20T04:34:05;100317.79;;;0.25;88.03
24336;BME280;33098;52.400;16.880;2022-11-20T04:36:32;100312.32;;;0.17;88.02
24336;BME280;33098;52.400;16.880;2022-11-20T04:39:02;100313.06;;;0.11;88.03
24336;BME280;33098;52.400;16.880;2022-11-20T04:41:33;100310.27;;;0.15;88.31
24336;BME280;33098;52.400;16.880;2022-11-20T04:44:02;100313.14;;;0.19;88.37
24336;BME280;33098;52.400;16.880;2022-11-20T04:46:38;100313.45;;;0.20;88.33
24336;BME280;33098;52.400;16.880;2022-11-20T04:49:05;100306.29;;;0.20;88.34
24336;BME280;33098;52.400;16.880;2022-11-20T04:51:33;100298.52;;;0.22;88.31
24336;BME280;33098;52.400;16.880;2022-11-20T04:54:00;100299.73;;;0.31;88.60
24336;BME280;33098;52.400;16.880;2022-11-20T04:56:27;100293.64;;;0.35;88.57
24336;BME280;33098;52.400;16.880;2022-11-20T04:58:53;100296.11;;;0.39;88.71
24336;BME280;33098;52.400;16.880;2022-11-20T05:01:22;100297.64;;;0.40;88.51
24336;BME280;33098;52.400;16.880;2022-11-20T05:03:49;100296.14;;;0.34;88.26
24336;BME280;33098;52.400;16.880;2022-11-20T05:06:19;100298.23;;;0.21;88.20
24336;BME280;33098;52.400;16.880;2022-11-20T05:08:45;100294.64;;;0.09;88.24
24336;BME280;33098;52.400;16.880;2022-11-20T05:11:15;100292.92;;;0.08;88.39
24336;BME280;33098;52.400;16.880;2022-11-20T05:13:42;100292.44;;;0.17;88.70
24336;BME280;33098;52.400;16.880;2022-11-20T05:16:11;100293.65;;;0.17;88.53
24336;BME280;33098;52.400;16.880;2022-11-20T05:18:39;100290.34;;;0.08;88.49
24336;BME280;33098;52.400;16.880;2022-11-20T05:21:07;100294.23;;;0.06;88.57
24336;BME280;33098;52.400;16.880;2022-11-20T05:23:35;100298.17;;;0.08;88.82
24336;BME280;33098;52.400;16.880;2022-11-20T05:26:02;100297.44;;;0.09;88.94
24336;BME280;33098;52.400;16.880;2022-11-20T05:28:30;100295.96;;;0.16;89.13
24336;BME280;33098;52.400;16.880;2022-11-20T05:31:07;100291.09;;;0.34;89.52
24336;BME280;33098;52.400;16.880;2022-11-20T05:33:35;100293.29;;;0.41;89.52
24336;BME280;33098;52.400;16.880;2022-11-20T05:36:05;100292.76;;;0.40;89.30
24336;BME280;33098;52.400;16.880;2022-11-20T05:38:32;100291.73;;;0.35;89.06
24336;BME280;33098;52.400;16.880;2022-11-20T05:41:06;100293.80;;;0.27;88.80
24336;BME280;33098;52.400;16.880;2022-11-20T05:43:34;100291.10;;;0.29;89.06
24336;BME280;33098;52.400;16.880;2022-11-20T05:46:02;100287.98;;;0.38;89.24
24336;BME280;33098;52.400;16.880;2022-11-20T05:48:30;100287.75;;;0.48;89.32
24336;BME280;33098;52.400;16.880;2022-11-20T05:50:58;100286.62;;;0.45;89.03
24336;BME280;33098;52.400;16.880;2022-11-20T05:53:25;100286.27;;;0.41;88.88
24336;BME280;33098;52.400;16.880;2022-11-20T05:55:59;100290.33;;;0.40;88.85
24336;BME280;33098;52.400;16.880;2022-11-20T05:58:26;100292.06;;;0.36;88.71
24336;BME280;33098;52.400;16.880;2022-11-20T06:00:54;100284.81;;;0.29;88.51
24336;BME280;33098;52.400;16.880;2022-11-20T06:03:20;100290.54;;;0.25;88.63
24336;BME280;33098;52.400;16.880;2022-11-20T06:05:47;100290.84;;;0.27;88.73
24336;BME280;33098;52.400;16.880;2022-11-20T06:08:14;100289.86;;;0.25;88.68
24336;BME280;33098;52.400;16.880;2022-11-20T06:10:40;100295.84;;;0.24;88.58
24336;BME280;33098;52.400;16.880;2022-11-20T06:13:07;100298.14;;;0.18;88.59
24336;BME280;33098;52.400;16.880;2022-11-20T06:15:33;100299.86;;;0.10;88.51
24336;BME280;33098;52.400;16.880;2022-11-20T06:18:00;100295.58;;;0.03;88.56
24336;BME280;33098;52.400;16.880;2022-11-20T06:20:26;100299.65;;;0.10;88.73
24336;BME280;33098;52.400;16.880;2022-11-20T06:22:53;100297.01;;;0.07;88.93
24336;BME280;33098;52.400;16.880;2022-11-20T06:25:20;100299.10;;;0.02;88.99
24336;BME280;33098;52.400;16.880;2022-11-20T06:27:46;100300.11;;;0.07;89.30
24336;BME280;33098;52.400;16.880;2022-11-20T06:30:13;100299.77;;;0.11;89.52
24336;BME280;33098;52.400;16.880;2022-11-20T06:32:39;100305.34;;;0.17;89.52
24336;BME280;33098;52.400;16.880;2022-11-20T06:35:06;100300.93;;;0.18;89.34
24336;BME280;33098;52.400;16.880;2022-11-20T06:37:33;100303.67;;;0.24;89.34
24336;BME280;33098;52.400;16.880;2022-11-20T06:39:59;100292.75;;;0.22;89.20
24336;BME280;33098;52.400;16.880;2022-11-20T06:42:26;100295.25;;;0.21;89.21
24336;BME280;33098;52.400;16.880;2022-11-20T06:44:53;100290.91;;;0.15;88.99
24336;BME280;33098;52.400;16.880;2022-11-20T06:47:19;100291.31;;;0.19;89.08
24336;BME280;33098;52.400;16.880;2022-11-20T06:49:46;100290.42;;;0.14;88.86
24336;BME280;33098;52.400;16.880;2022-11-20T06:52:12;100289.71;;;0.14;88.76
24336;BME280;33098;52.400;16.880;2022-11-20T06:54:39;100291.45;;;0.10;88.69
24336;BME280;33098;52.400;16.880;2022-11-20T06:57:05;100294.06;;;0.06;88.65
24336;BME280;33098;52.400;16.880;2022-11-20T06:59:32;100292.29;;;0.02;88.48
24336;BME280;33098;52.400;16.880;2022-11-20T07:01:58;100295.55;;;-0.01;88.44
24336;BME280;33098;52.400;16.880;2022-11-20T07:04:25;100286.65;;;-0.01;88.42
24336;BME280;33098;52.400;16.880;2022-11-20T07:06:52;100286.52;;;0.02;88.46
24336;BME280;33098;52.400;16.880;2022-11-20T07:09:18;100284.52;;;0.00;88.22
24336;BME280;33098;52.400;16.880;2022-11-20T07:11:45;100288.96;;;-0.07;88.07
24336;BME280;33098;52.400;16.880;2022-11-20T07:14:11;100285.71;;;-0.04;88.25
24336;BME280;33098;52.400;16.880;2022-11-20T07:16:38;100285.22;;;0.09;88.43
24336;BME280;33098;52.400;16.880;2022-11-20T07:19:05;100286.23;;;0.15;88.15
24336;BME280;33098;52.400;16.880;2022-11-20T07:21:31;100285.96;;;0.12;87.71
24336;BME280;33098;52.400;16.880;2022-11-20T07:23:58;100283.75;;;0.01;87.05
24336;BME280;33098;52.400;16.880;2022-11-20T07:26:24;100289.70;;;-0.04;86.93
24336;BME280;33098;52.400;16.880;2022-11-20T07:28:51;100287.83;;;-0.05;87.00
24336;BME280;33098;52.400;16.880;2022-11-20T07:31:17;100287.84;;;-0.05;87.00
24336;BME280;33098;52.400;16.880;2022-11-20T07:33:44;100286.48;;;-0.02;86.94
24336;BME280;33098;52.400;16.880;2022-11-20T07:36:10;100289.29;;;-0.02;86.69
24336;BME280;33098;52.400;16.880;2022-11-20T07:38:38;100287.54;;;-0.02;86.76
24336;BME280;33098;52.400;16.880;2022-11-20T07:41:04;100286.23;;;0.06;86.91
24336;BME280;33098;52.400;16.880;2022-11-20T07:43:31;100280.05;;;0.12;86.84
24336;BME280;33098;52.400;16.880;2022-11-20T07:45:58;100283.34;;;0.13;86.59
24336;BME280;33098;52.400;16.880;2022-11-20T07:48:25;100281.95;;;0.17;86.58
24336;BME280;33098;52.400;16.880;2022-11-20T07:50:56;100275.77;;;0.24;86.58
24336;BME280;33098;52.400;16.880;2022-11-20T07:53:23;100273.07;;;0.26;86.25
24336;BME280;33098;52.400;16.880;2022-11-20T07:55:51;100269.92;;;0.31;86.19
24336;BME280;33098;52.400;16.880;2022-11-20T07:58:19;100267.09;;;0.27;85.83
24336;BME280;33098;52.400;16.880;2022-11-20T08:00:46;100265.38;;;0.30;85.87
24336;BME280;33098;52.400;16.880;2022-11-20T08:03:13;100265.86;;;0.31;85.68
24336;BME280;33098;52.400;16.880;2022-11-20T08:05:40;100261.01;;;0.26;85.45
24336;BME280;33098;52.400;16.880;2022-11-20T08:08:06;100259.59;;;0.23;85.41
24336;BME280;33098;52.400;16.880;2022-11-20T08:10:34;100262.44;;;0.16;85.15
24336;BME280;33098;52.400;16.880;2022-11-20T08:13:00;100266.15;;;0.15;85.17
24336;BME280;33098;52.400;16.880;2022-11-20T08:15:50;100261.95;;;0.20;85.27
24336;BME280;33098;52.400;16.880;2022-11-20T08:18:19;100261.86;;;0.22;85.39
24336;BME280;33098;52.400;16.880;2022-11-20T08:20:45;100259.64;;;0.25;85.19
24336;BME280;33098;52.400;16.880;2022-11-20T08:23:12;100252.78;;;0.23;84.76
24336;BME280;33098;52.400;16.880;2022-11-20T08:25:39;100251.11;;;0.20;84.64
24336;BME280;33098;52.400;16.880;2022-11-20T08:28:08;100253.36;;;0.26;84.80
24336;BME280;33098;52.400;16.880;2022-11-20T08:30:36;100247.95;;;0.21;84.45
24336;BME280;33098;52.400;16.880;2022-11-20T08:33:08;100246.95;;;0.20;84.53
24336;BME280;33098;52.400;16.880;2022-11-20T08:35:36;100243.59;;;0.25;84.66
24336;BME280;33098;52.400;16.880;2022-11-20T08:38:05;100244.55;;;0.37;84.98
24336;BME280;33098;52.400;16.880;2022-11-20T08:40:32;100241.57;;;0.41;84.82
24336;BME280;33098;52.400;16.880;2022-11-20T08:42:58;100243.99;;;0.46;84.57
24336;BME280;33098;52.400;16.880;2022-11-20T08:45:25;100240.61;;;0.47;84.52
24336;BME280;33098;52.400;16.880;2022-11-20T08:47:52;100238.18;;;0.47;84.16
24336;BME280;33098;52.400;16.880;2022-11-20T08:50:18;100241.10;;;0.44;83.94
24336;BME280;33098;52.400;16.880;2022-11-20T08:52:45;100242.11;;;0.36;83.77
24336;BME280;33098;52.400;16.880;2022-11-20T08:55:12;100241.64;;;0.44;83.93
24336;BME280;33098;52.400;16.880;2022-11-20T08:57:39;100238.79;;;0.50;84.01
24336;BME280;33098;52.400;16.880;2022-11-20T09:00:07;100238.48;;;0.57;83.89
24336;BME280;33098;52.400;16.880;2022-11-20T09:02:36;100237.39;;;0.50;83.14
24336;BME280;33098;52.400;16.880;2022-11-20T09:05:03;100234.07;;;0.50;83.36
24336;BME280;33098;52.400;16.880;2022-11-20T09:07:30;100235.59;;;0.55;83.53
24336;BME280;33098;52.400;16.880;2022-11-20T09:09:56;100237.27;;;0.62;83.70
24336;BME280;33098;52.400;16.880;2022-11-20T09:12:23;100232.30;;;0.67;83.76
24336;BME280;33098;52.400;16.880;2022-11-20T09:14:50;100230.61;;;0.75;83.68
24336;BME280;33098;52.400;16.880;2022-11-20T09:17:16;100227.21;;;0.81;83.46
24336;BME280;33098;52.400;16.880;2022-11-20T09:19:43;100229.23;;;0.87;83.46
24336;BME280;33098;52.400;16.880;2022-11-20T09:22:10;100231.64;;;1.01;83.58
24336;BME280;33098;52.400;16.880;2022-11-20T09:24:36;100231.30;;;1.13;83.29
24336;BME280;33098;52.400;16.880;2022-11-20T09:27:04;100231.51;;;1.20;83.26
24336;BME280;33098;52.400;16.880;2022-11-20T09:29:31;100232.23;;;1.28;83.00
24336;BME280;33098;52.400;16.880;2022-11-20T09:31:58;100226.32;;;1.27;82.42
24336;BME280;33098;52.400;16.880;2022-11-20T09:34:24;100225.35;;;1.21;81.92
24336;BME280;33098;52.400;16.880;2022-11-20T09:36:51;100226.13;;;1.15;81.42
24336;BME280;33098;52.400;16.880;2022-11-20T09:39:17;100221.55;;;1.16;81.35
24336;BME280;33098;52.400;16.880;2022-11-20T09:44:57;100222.30;;;1.27;81.84
24336;BME280;33098;52.400;16.880;2022-11-20T09:55:16;100214.68;;;1.37;80.45
24336;BME280;33098;52.400;16.880;2022-11-20T09:57:45;100210.66;;;1.41;80.57
24336;BME280;33098;52.400;16.880;2022-11-20T10:00:14;100210.03;;;1.52;80.65
24336;BME280;33098;52.400;16.880;2022-11-20T10:02:49;100209.95;;;1.57;80.40
24336;BME280;33098;52.400;16.880;2022-11-20T10:05:43;100214.13;;;1.62;80.23
24336;BME280;33098;52.400;16.880;2022-11-20T10:08:20;100210.15;;;1.61;80.13
24336;BME280;33098;52.400;16.880;2022-11-20T10:11:08;100210.43;;;1.58;79.72
24336;BME280;33098;52.400;16.880;2022-11-20T10:13:56;100207.84;;;1.57;79.77
24336;BME280;33098;52.400;16.880;2022-11-20T10:19:59;100201.84;;;1.74;79.70
24336;BME280;33098;52.400;16.880;2022-11-20T10:22:40;100192.36;;;1.82;79.66
24336;BME280;33098;52.400;16.880;2022-11-20T10:25:13;100195.05;;;1.85;79.02
24336;BME280;33098;52.400;16.880;2022-11-20T10:30:18;100191.48;;;1.79;77.97
24336;BME280;33098;52.400;16.880;2022-11-20T10:32:51;100190.46;;;1.78;78.60
24336;BME280;33098;52.400;16.880;2022-11-20T10:37:56;100183.05;;;1.91;78.73
24336;BME280;33098;52.400;16.880;2022-11-20T10:43:27;100188.03;;;2.19;78.59
24336;BME280;33098;52.400;16.880;2022-11-20T10:46:17;100185.84;;;2.28;78.07
24336;BME280;33098;52.400;16.880;2022-11-20T10:48:45;100183.73;;;2.43;78.41
24336;BME280;33098;52.400;16.880;2022-11-20T10:54:07;100178.29;;;2.68;77.70
24336;BME280;33098;52.400;16.880;2022-11-20T10:56:39;100178.63;;;2.58;76.97
24336;BME280;33098;52.400;16.880;2022-11-20T11:02:00;100179.02;;;2.54;76.62
24336;BME280;33098;52.400;16.880;2022-11-20T11:04:35;100180.98;;;2.45;76.26
24336;BME280;33098;52.400;16.880;2022-11-20T11:07:17;100178.13;;;2.35;75.22
24336;BME280;33098;52.400;16.880;2022-11-20T11:09:52;100183.23;;;2.28;75.54
24336;BME280;33098;52.400;16.880;2022-11-20T11:12:25;100181.27;;;2.32;76.04
24336;BME280;33098;52.400;16.880;2022-11-20T11:14:54;100179.67;;;2.36;75.75
24336;BME280;33098;52.400;16.880;2022-11-20T11:17:33;100185.58;;;2.48;76.37
24336;BME280;33098;52.400;16.880;2022-11-20T11:22:33;100182.24;;;2.59;75.92
24336;BME280;33098;52.400;16.880;2022-11-20T11:25:00;100178.92;;;2.52;75.81
24336;BME280;33098;52.400;16.880;2022-11-20T11:27:27;100172.76;;;2.41;75.42
24336;BME280;33098;52.400;16.880;2022-11-20T11:30:13;100176.00;;;2.39;75.70
24336;BME280;33098;52.400;16.880;2022-11-20T11:32:40;100179.25;;;2.30;75.69
24336;BME280;33098;52.400;16.880;2022-11-20T11:35:20;100174.52;;;2.30;76.05
24336;BME280;33098;52.400;16.880;2022-11-20T11:37:47;100175.29;;;2.33;75.92
24336;BME280;33098;52.400;16.880;2022-11-20T11:40:16;100175.36;;;2.27;75.86
24336;BME280;33098;52.400;16.880;2022-11-20T11:42:48;100178.28;;;2.28;76.11
24336;BME280;33098;52.400;16.880;2022-11-20T11:45:16;100176.90;;;2.28;76.21
24336;BME280;33098;52.400;16.880;2022-11-20T11:47:45;100170.45;;;2.20;75.69
24336;BME280;33098;52.400;16.880;2022-11-20T11:58:25;100152.81;;;1.93;75.09
24336;BME280;33098;52.400;16.880;2022-11-20T12:01:03;100152.09;;;1.90;75.47
24336;BME280;33098;52.400;16.880;2022-11-20T12:03:38;100153.23;;;1.89;75.51
24336;BME280;33098;52.400;16.880;2022-11-20T12:06:13;100153.66;;;1.94;75.57
24336;BME280;33098;52.400;16.880;2022-11-20T12:11:23;100153.77;;;1.95;75.50
24336;BME280;33098;52.400;16.880;2022-11-20T12:14:15;100143.77;;;1.89;75.49
24336;BME280;33098;52.400;16.880;2022-11-20T12:16:46;100145.02;;;1.92;75.02
24336;BME280;33098;52.400;16.880;2022-11-20T12:19:14;100143.34;;;1.83;74.60
24336;BME280;33098;52.400;16.880;2022-11-20T12:30:11;100131.27;;;1.68;75.24
24336;BME280;33098;52.400;16.880;2022-11-20T12:33:06;100127.44;;;1.75;75.74
24336;BME280;33098;52.400;16.880;2022-11-20T12:36:05;100124.48;;;1.86;75.62
24336;BME280;33098;52.400;16.880;2022-11-20T12:44:28;100115.75;;;1.89;75.07
24336;BME280;33098;52.400;16.880;2022-11-20T12:52:53;100109.88;;;1.95;75.14
24336;BME280;33098;52.400;16.880;2022-11-20T12:58:54;100105.75;;;1.86;74.72
24336;BME280;33098;52.400;16.880;2022-11-20T13:04:41;100106.44;;;1.83;74.78
24336;BME280;33098;52.400;16.880;2022-11-20T13:07:14;100104.13;;;1.79;74.38
24336;BME280;33098;52.400;16.880;2022-11-20T13:09:45;100100.52;;;1.78;74.85
24336;BME280;33098;52.400;16.880;2022-11-20T13:12:29;100098.98;;;1.85;74.45
24336;BME280;33098;52.400;16.880;2022-11-20T13:18:00;100093.58;;;1.77;74.54
24336;BME280;33098;52.400;16.880;2022-11-20T13:20:29;100088.73;;;1.79;74.68
24336;BME280;33098;52.400;16.880;2022-11-20T13:22:56;100088.50;;;1.85;74.73
24336;BME280;33098;52.400;16.880;2022-11-20T13:25:27;100089.11;;;1.86;74.62
24336;BME280;33098;52.400;16.880;2022-11-20T13:27:56;100087.18;;;1.90;74.85
24336;BME280;33098;52.400;16.880;2022-11-20T13:30:25;100085.94;;;1.91;74.33
24336;BME280;33098;52.400;16.880;2022-11-20T13:32:57;100087.14;;;1.91;74.46
24336;BME280;33098;52.400;16.880;2022-11-20T13:35:40;100081.33;;;1.88;73.97
24336;BME280;33098;52.400;16.880;2022-11-20T13:38:14;100081.63;;;1.85;74.26
24336;BME280;33098;52.400;16.880;2022-11-20T13:40:53;100082.16;;;1.89;74.39
24336;BME280;33098;52.400;16.880;2022-11-20T13:46:01;100078.40;;;1.84;74.23
24336;BME280;33098;52.400;16.880;2022-11-20T13:48:31;100075.77;;;1.87;74.73
24336;BME280;33098;52.400;16.880;2022-11-20T14:01:42;100077.26;;;2.00;75.27
24336;BME280;33098;52.400;16.880;2022-11-20T14:04:19;100074.34;;;2.02;75.29
24336;BME280;33098;52.400;16.880;2022-11-20T14:06:48;100069.39;;;2.03;75.67
24336;BME280;33098;52.400;16.880;2022-11-20T14:11:52;100069.13;;;1.94;75.32
24336;BME280;33098;52.400;16.880;2022-11-20T14:14:22;100073.61;;;1.96;75.56
24336;BME280;33098;52.400;16.880;2022-11-20T14:16:50;100069.73;;;2.00;75.58
24336;BME280;33098;52.400;16.880;2022-11-20T14:21:47;100069.61;;;2.09;75.52
24336;BME280;33098;52.400;16.880;2022-11-20T14:24:19;100065.17;;;2.07;75.38
24336;BME280;33098;52.400;16.880;2022-11-20T14:26:46;100066.19;;;2.08;75.65
24336;BME280;33098;52.400;16.880;2022-11-20T14:29:25;100060.75;;;2.15;75.66
24336;BME280;33098;52.400;16.880;2022-11-20T14:31:54;100056.96;;;2.10;75.31
24336;BME280;33098;52.400;16.880;2022-11-20T14:34:24;100056.87;;;2.05;75.44
24336;BME280;33098;52.400;16.880;2022-11-20T14:37:03;100057.02;;;2.13;75.66